Minnedosa, Canada
Current Conditions -  °F | °C
As of 8:00 PM on Wednesday 17 Dec 2014 (Local Time) from CYBR Reporting Station
Clear Clear  
Wind Chill: -9°   Ceiling: Unl
Heat Index:   Visibility: 15mi
Dew Point:   Wind: 7mph
Humidity: 85%   Direction: 130°SE
Pressure: 30.24"   Gusts: NA
Location:  50.25°N, 99.84°W
Report Text: CYBR 180200Z 13006KT 15SM SKC M16/M18 A3024 RMK SLP286
Loading
Personal Weather Stations






























Interactive Weather Map New forecast layout! Learn more

10-Day Weather Forecast

Advertisements
Track Severe Weather on mobile